This is the latest recevied weather packets stored in our database for station/object EB1GOD-1. If no packets are shown the sender has not sent any weather packets the latest 1 day(s).
| Time | Temp. | Humidity | Pressure | Rain* | Wind** | Luminosity | Snow |
|---|---|---|---|---|---|---|---|
| 1778047451 | 10° C | 86% | 1153.8 hPa | - | - | - | - |
| 1778046551 | 9.44° C | 89% | 1153.7 hPa | - | - | - | - |
| 1778045651 | 9.44° C | 87% | 1153.7 hPa | - | - | - | - |
| 1778044751 | 10° C | 85% | 1153.5 hPa | - | - | - | - |
| 1778043851 | 10° C | 87% | 1153.6 hPa | - | - | - | - |
| 1778042937 | 10° C | 86% | 1153.5 hPa | - | - | - | - |
| 1778042035 | 10° C | 85% | 1153.4 hPa | - | - | - | - |
| 1778041134 | 10° C | 89% | 1153.5 hPa | - | - | - | - |
| 1778039335 | 10.56° C | 84% | 1153.8 hPa | - | - | - | - |
| 1778038434 | 10.56° C | 84% | 1153.8 hPa | - | - | - | - |
| 1778037534 | 10.56° C | 85% | 1153.9 hPa | - | - | - | - |
| 1778035740 | 10.56° C | 87% | 1153.9 hPa | - | - | - | - |
| 1778034836 | 11.11° C | 84% | 1153.7 hPa | - | - | - | - |
| 1778033934 | 11.11° C | 85% | 1153.9 hPa | - | - | - | - |
| 1778033033 | 11.11° C | 85% | 1154 hPa | - | - | - | - |
| 1778032133 | 10.56° C | 84% | 1154.1 hPa | - | - | - | - |
| 1778031233 | 11.67° C | 82% | 1154 hPa | - | - | - | - |
| 1778030333 | 11.67° C | 84% | 1154.3 hPa | - | - | - | - |
| 1778029433 | 11.67° C | 87% | 1154.3 hPa | - | - | - | - |
| 1778028533 | 10.56° C | 85% | 1154.7 hPa | - | - | - | - |
| 1778027633 | 11.67° C | 87% | 1154.6 hPa | - | - | - | - |
| 1778026733 | 11.67° C | 84% | 1154.6 hPa | - | - | - | - |
| 1778024033 | 10.56° C | 89% | 1154.8 hPa | - | - | - | - |
| 1778022282 | 12.78° C | 84% | 1154.7 hPa | - | - | - | - |
* Rain since midnight (hover to see other rain measurements)
** Current wind speed in m/s (hover to see current wind gust speed)